createdAt,value
2019-02-12T00:00:25.148Z,99.90
2019-02-12T00:02:54.481Z,99.90
2019-02-12T00:05:23.879Z,99.90
2019-02-12T00:07:53.143Z,99.90
2019-02-12T00:10:22.482Z,99.90
2019-02-12T00:12:51.799Z,99.90
2019-02-12T00:15:21.144Z,99.90
2019-02-12T00:17:50.460Z,99.90
2019-02-12T00:20:19.790Z,99.90
2019-02-12T00:22:49.123Z,99.90
2019-02-12T00:25:18.452Z,99.80
2019-02-12T00:27:47.785Z,99.70
2019-02-12T00:30:17.113Z,99.70
2019-02-12T00:32:46.441Z,99.70
2019-02-12T00:35:15.769Z,99.80
2019-02-12T00:37:45.101Z,99.90
2019-02-12T00:40:14.432Z,99.90
2019-02-12T00:42:43.764Z,99.90
2019-02-12T00:45:13.301Z,99.90
2019-02-12T00:47:42.633Z,99.90
2019-02-12T00:50:12.623Z,99.90
2019-02-12T00:52:41.950Z,99.90
2019-02-12T00:55:11.410Z,99.90
2019-02-12T00:57:40.763Z,99.90
2019-02-12T01:00:15.014Z,99.90
2019-02-12T01:02:44.343Z,99.90
2019-02-12T01:05:13.848Z,99.90
2019-02-12T01:07:43.183Z,99.90
2019-02-12T01:10:12.880Z,99.90
2019-02-12T01:12:42.207Z,99.90
2019-02-12T01:15:15.046Z,99.90
2019-02-12T01:17:44.378Z,99.90
2019-02-12T01:20:14.644Z,99.90
2019-02-12T01:22:43.971Z,99.90
2019-02-12T01:25:13.305Z,99.90
2019-02-12T01:27:42.634Z,99.90
2019-02-12T01:30:17.191Z,99.90
2019-02-12T01:32:46.581Z,99.90
2019-02-12T01:35:15.904Z,99.90
2019-02-12T01:37:45.236Z,99.90
2019-02-12T01:40:14.567Z,99.90
2019-02-12T01:42:43.907Z,99.90
2019-02-12T01:45:13.776Z,99.90
2019-02-12T01:47:43.100Z,99.90
2019-02-12T01:50:13.666Z,99.90
2019-02-12T01:52:42.996Z,99.90
2019-02-12T01:55:12.414Z,99.90
2019-02-12T01:57:41.732Z,99.90
2019-02-12T02:00:13.935Z,99.90
2019-02-12T02:02:43.738Z,99.90
2019-02-12T02:05:13.074Z,99.90
2019-02-12T02:07:42.393Z,99.90
2019-02-12T02:10:15.531Z,99.90
2019-02-12T02:12:45.034Z,99.90
2019-02-12T02:15:15.264Z,99.90
2019-02-12T02:17:44.591Z,99.90
2019-02-12T02:20:15.462Z,99.90
2019-02-12T02:22:44.791Z,99.90
2019-02-12T02:25:14.837Z,99.90
2019-02-12T02:27:44.160Z,99.90
2019-02-12T02:30:16.303Z,99.90
2019-02-12T02:32:45.896Z,99.90
2019-02-12T02:35:15.226Z,99.90
2019-02-12T02:37:44.553Z,99.90
2019-02-12T02:40:13.888Z,99.90
2019-02-12T02:42:43.217Z,99.90
2019-02-12T02:45:13.937Z,99.90
2019-02-12T02:47:43.215Z,99.90
2019-02-12T02:50:12.912Z,99.90
2019-02-12T02:52:42.241Z,99.90
2019-02-12T02:55:11.636Z,99.90
2019-02-12T02:57:40.964Z,99.90
2019-02-12T03:00:11.931Z,99.90
2019-02-12T03:02:41.327Z,99.90
2019-02-12T03:05:12.310Z,99.90
2019-02-12T03:07:41.653Z,99.90
2019-02-12T03:10:11.877Z,99.90
2019-02-12T03:12:41.191Z,99.90
2019-02-12T03:15:11.869Z,99.90
2019-02-12T03:17:41.193Z,99.90
2019-02-12T03:20:13.684Z,99.90
2019-02-12T03:22:43.015Z,99.90
2019-02-12T03:25:12.632Z,99.90
2019-02-12T03:27:41.961Z,99.90
2019-02-12T03:30:13.143Z,99.90
2019-02-12T03:32:42.552Z,99.90
2019-02-12T03:35:11.907Z,99.90
2019-02-12T03:37:41.216Z,99.90
2019-02-12T03:40:12.188Z,99.90
2019-02-12T03:42:41.534Z,99.90
2019-02-12T03:45:14.143Z,99.90
2019-02-12T03:47:43.496Z,99.90
2019-02-12T03:50:13.546Z,99.90
2019-02-12T03:52:42.875Z,99.90
2019-02-12T03:55:14.335Z,99.90
2019-02-12T03:57:43.997Z,99.90
2019-02-12T04:00:16.144Z,99.90
2019-02-12T04:03:06.585Z,99.90
2019-02-12T04:05:38.401Z,99.90
2019-02-12T04:08:08.074Z,99.90
2019-02-12T04:10:37.408Z,99.90
2019-02-12T04:13:06.732Z,99.90
2019-02-12T04:15:36.065Z,99.90
2019-02-12T04:18:05.397Z,99.90
2019-02-12T04:20:34.732Z,99.90
2019-02-12T04:23:04.056Z,99.90
2019-02-12T04:25:33.406Z,99.90
2019-02-12T04:28:02.715Z,99.90
2019-02-12T04:30:32.040Z,99.90
2019-02-12T04:33:01.367Z,99.90
2019-02-12T04:35:30.700Z,99.90
2019-02-12T04:38:00.034Z,99.90
2019-02-12T04:40:29.378Z,99.90
2019-02-12T04:42:58.708Z,99.90
2019-02-12T04:45:28.038Z,99.90
2019-02-12T04:47:57.375Z,99.90
2019-02-12T04:50:26.704Z,99.90
2019-02-12T04:52:56.033Z,99.90
2019-02-12T04:55:25.365Z,99.90
2019-02-12T04:57:54.686Z,99.90
2019-02-12T05:00:24.026Z,99.90
2019-02-12T05:02:53.368Z,99.90
2019-02-12T05:05:22.690Z,99.90
2019-02-12T05:07:52.033Z,99.90
2019-02-12T05:10:35.389Z,99.90
2019-02-12T05:13:04.721Z,99.90
2019-02-12T05:15:34.056Z,99.90
2019-02-12T05:18:03.397Z,99.90
2019-02-12T05:20:32.721Z,99.90
2019-02-12T05:23:02.055Z,99.90
2019-02-12T05:25:31.383Z,99.90
2019-02-12T05:28:00.713Z,99.90
2019-02-12T05:30:30.045Z,99.90
2019-02-12T05:32:59.673Z,99.90
2019-02-12T05:35:29.005Z,99.90
2019-02-12T05:37:58.332Z,99.90
2019-02-12T05:40:27.662Z,99.90
2019-02-12T05:42:57.333Z,99.90
2019-02-12T05:45:26.661Z,99.90
2019-02-12T05:47:56.090Z,99.90
2019-02-12T05:50:25.420Z,99.90
2019-02-12T05:52:55.234Z,99.90
2019-02-12T05:55:24.659Z,99.90
2019-02-12T05:57:53.993Z,99.90
2019-02-12T06:00:24.964Z,99.90
2019-02-12T06:02:54.302Z,99.90
2019-02-12T06:05:29.635Z,99.90
2019-02-12T06:07:59.141Z,99.90
2019-02-12T06:10:28.497Z,99.90
2019-02-12T06:12:57.808Z,99.90
2019-02-12T06:15:27.132Z,99.90
2019-02-12T06:17:56.463Z,99.90
2019-02-12T06:20:25.800Z,99.90
2019-02-12T06:23:03.441Z,99.90
2019-02-12T06:25:27.272Z,99.90
2019-02-12T06:27:56.601Z,99.90
2019-02-12T06:30:26.487Z,99.90
2019-02-12T06:32:55.859Z,99.90
2019-02-12T06:35:25.194Z,99.90
2019-02-12T06:37:54.586Z,99.90
2019-02-12T06:40:25.090Z,99.90
2019-02-12T06:42:54.424Z,99.90
2019-02-12T06:45:23.758Z,99.90
2019-02-12T06:47:53.090Z,99.90
2019-02-12T06:50:22.422Z,99.90
2019-02-12T06:52:51.760Z,99.90
2019-02-12T06:55:21.091Z,99.90
2019-02-12T06:57:50.428Z,99.90
2019-02-12T07:00:19.764Z,99.90
2019-02-12T07:03:16.761Z,99.90
2019-02-12T07:05:59.861Z,99.90
2019-02-12T07:08:42.224Z,99.90
2019-02-12T07:11:38.640Z,99.90
2019-02-12T07:14:15.468Z,99.90
2019-02-12T07:17:13.403Z,99.90
2019-02-12T07:20:18.755Z,99.90
2019-02-12T07:23:21.455Z,99.90
2019-02-12T07:26:17.747Z,99.90
2019-02-12T07:29:13.735Z,99.90
2019-02-12T07:32:05.400Z,99.90
2019-02-12T07:34:48.524Z,99.90
2019-02-12T07:37:27.979Z,99.90
2019-02-12T07:40:28.767Z,99.90
2019-02-12T07:43:13.860Z,99.90
2019-02-12T07:46:07.028Z,99.90
2019-02-12T07:48:46.615Z,99.90
2019-02-12T07:51:44.866Z,99.90
2019-02-12T07:54:33.876Z,99.90
2019-02-12T07:57:33.797Z,99.90
2019-02-12T08:00:30.152Z,99.90
2019-02-12T08:03:38.459Z,99.90
2019-02-12T08:06:12.408Z,99.90
2019-02-12T08:08:55.187Z,99.90
2019-02-12T08:11:41.084Z,99.90
2019-02-12T08:14:35.871Z,99.90
2019-02-12T08:17:27.917Z,99.90
2019-02-12T08:20:30.318Z,99.90
2019-02-12T08:23:16.165Z,99.90
2019-02-12T08:25:58.590Z,99.90
2019-02-12T08:28:38.337Z,99.90
2019-02-12T08:31:15.228Z,99.90
2019-02-12T08:33:54.331Z,99.90
2019-02-12T08:36:49.316Z,99.90
2019-02-12T08:39:40.681Z,99.90
2019-02-12T08:42:38.785Z,99.90
2019-02-12T08:45:48.405Z,99.90
2019-02-12T08:48:48.102Z,99.90
2019-02-12T08:51:47.823Z,99.90
2019-02-12T08:54:24.699Z,99.90
2019-02-12T08:57:15.261Z,99.90
2019-02-12T09:00:07.069Z,99.90
2019-02-12T09:03:15.071Z,99.90
2019-02-12T09:06:14.602Z,99.90
2019-02-12T09:09:21.325Z,99.60
2019-02-12T09:12:03.952Z,99.70
2019-02-12T09:14:55.657Z,99.40
2019-02-12T09:17:53.806Z,99.20
2019-02-12T09:20:45.742Z,99.00
2019-02-12T09:23:28.589Z,99.00
2019-02-12T09:26:20.047Z,98.80
2019-02-12T09:29:11.925Z,98.70
2019-02-12T09:32:06.998Z,98.70
2019-02-12T09:34:46.520Z,98.70
2019-02-12T09:37:35.581Z,98.60
2019-02-12T09:40:54.866Z,98.70
2019-02-12T09:44:00.326Z,98.60
2019-02-12T09:46:45.839Z,98.50
2019-02-12T09:49:51.719Z,98.50
2019-02-12T09:53:01.430Z,98.50
2019-02-12T09:55:59.376Z,98.40
2019-02-12T09:58:55.485Z,98.50
2019-02-12T10:01:55.949Z,98.50
2019-02-12T10:04:29.904Z,98.50
2019-02-12T10:07:09.203Z,98.60
2019-02-12T10:10:17.937Z,98.60
2019-02-12T10:12:57.559Z,98.60
2019-02-12T10:15:51.840Z,98.50
2019-02-12T10:18:45.468Z,98.30
2019-02-12T10:21:31.321Z,98.40
2019-02-12T10:24:19.625Z,98.30
2019-02-12T10:27:04.879Z,98.50
2019-02-12T10:29:53.225Z,98.30
2019-02-12T10:32:20.998Z,98.40
2019-02-12T10:34:50.325Z,98.40
2019-02-12T10:37:19.632Z,98.20
2019-02-12T10:39:48.973Z,98.30
2019-02-12T10:42:18.329Z,97.90
2019-02-12T10:44:47.670Z,97.80
2019-02-12T10:47:17.000Z,97.90
2019-02-12T10:49:46.347Z,97.30
2019-02-12T10:52:15.670Z,96.90
2019-02-12T10:54:45.024Z,97.00
2019-02-12T10:57:14.625Z,96.80
2019-02-12T10:59:44.058Z,96.70
2019-02-12T11:02:13.391Z,96.60
2019-02-12T11:04:42.728Z,96.10
2019-02-12T11:07:12.058Z,96.00
2019-02-12T11:09:41.469Z,95.60
2019-02-12T11:12:10.804Z,95.50
2019-02-12T11:14:40.145Z,95.60
2019-02-12T11:17:09.476Z,95.20
2019-02-12T11:19:38.813Z,95.40
2019-02-12T11:22:08.143Z,94.90
2019-02-12T11:24:37.489Z,94.90
2019-02-12T11:27:06.824Z,94.50
2019-02-12T11:29:36.168Z,94.30
2019-02-12T11:32:05.500Z,94.50
2019-02-12T11:34:34.838Z,93.80
2019-02-12T11:37:04.178Z,94.00
2019-02-12T11:39:33.526Z,93.90
2019-02-12T11:42:03.026Z,93.50
2019-02-12T11:44:32.527Z,93.70
2019-02-12T11:47:01.866Z,93.50
2019-02-12T11:49:31.201Z,92.60
2019-02-12T11:52:00.545Z,92.20
2019-02-12T11:54:29.880Z,92.60
2019-02-12T11:56:59.212Z,92.40
2019-02-12T11:59:28.557Z,91.90
2019-02-12T12:01:57.886Z,91.90
2019-02-12T12:04:27.228Z,92.00
2019-02-12T12:06:56.562Z,91.70
2019-02-12T12:09:25.902Z,92.10
2019-02-12T12:11:55.241Z,91.40
2019-02-12T12:14:24.580Z,91.70
2019-02-12T12:16:53.912Z,91.40
2019-02-12T12:19:23.265Z,91.40
2019-02-12T12:21:52.589Z,91.60
2019-02-12T12:24:21.924Z,91.70
2019-02-12T12:26:51.261Z,90.50
2019-02-12T12:29:20.604Z,90.30
2019-02-12T12:31:49.941Z,89.70
2019-02-12T12:34:19.307Z,89.30
2019-02-12T12:36:48.653Z,89.70
2019-02-12T12:39:17.996Z,88.90
2019-02-12T12:41:47.334Z,89.00
2019-02-12T12:44:16.680Z,88.20
2019-02-12T12:46:46.017Z,87.90
2019-02-12T12:49:15.359Z,87.50
2019-02-12T12:51:44.699Z,87.50
2019-02-12T12:54:14.040Z,87.50
2019-02-12T12:56:43.388Z,87.30
2019-02-12T12:59:12.729Z,87.50
2019-02-12T13:01:42.077Z,87.80
2019-02-12T13:04:11.414Z,87.60
2019-02-12T13:06:40.758Z,86.90
2019-02-12T13:09:10.102Z,84.50
2019-02-12T13:11:39.444Z,84.70
2019-02-12T13:14:08.781Z,84.90
2019-02-12T13:16:38.127Z,84.00
2019-02-12T13:19:08.490Z,84.20
2019-02-12T13:21:37.889Z,84.30
2019-02-12T13:24:07.227Z,82.50
2019-02-12T13:26:36.569Z,83.20
2019-02-12T13:29:05.927Z,83.10
2019-02-12T13:31:35.256Z,80.80
2019-02-12T13:34:04.591Z,81.10
2019-02-12T13:36:33.934Z,81.60
2019-02-12T13:39:04.820Z,81.20
2019-02-12T13:41:34.171Z,83.40
2019-02-12T13:44:03.507Z,82.20
2019-02-12T13:46:33.087Z,81.20
2019-02-12T13:49:02.426Z,81.10
2019-02-12T13:51:31.778Z,81.00
2019-02-12T13:54:01.115Z,81.60
2019-02-12T13:56:30.459Z,82.10
2019-02-12T13:58:59.802Z,83.10
2019-02-12T14:01:29.143Z,82.30
2019-02-12T14:03:58.485Z,82.10
2019-02-12T14:06:27.835Z,82.50
2019-02-12T14:08:57.173Z,82.50
2019-02-12T14:11:26.515Z,83.50
2019-02-12T14:13:55.855Z,82.70
2019-02-12T14:16:25.200Z,83.40
2019-02-12T14:18:54.538Z,82.60
2019-02-12T14:21:23.892Z,82.20
2019-02-12T14:23:53.400Z,83.00
2019-02-12T14:26:22.738Z,83.00
2019-02-12T14:28:52.085Z,83.00
2019-02-12T14:31:21.433Z,82.90
2019-02-12T14:33:50.839Z,83.00
2019-02-12T14:36:20.172Z,82.80
2019-02-12T14:38:49.511Z,82.90
2019-02-12T14:41:18.856Z,83.30
2019-02-12T14:43:48.193Z,83.10
2019-02-12T14:46:17.529Z,81.20
2019-02-12T14:48:46.869Z,83.20
2019-02-12T14:51:16.210Z,81.30
2019-02-12T14:53:45.545Z,80.70
2019-02-12T14:56:14.885Z,81.30
2019-02-12T14:58:44.224Z,81.50
2019-02-12T15:01:13.562Z,81.60
2019-02-12T15:03:42.898Z,81.60
2019-02-12T15:06:12.240Z,82.00
2019-02-12T15:08:41.580Z,81.60
2019-02-12T15:11:10.920Z,82.00
2019-02-12T15:13:40.258Z,84.50
2019-02-12T15:16:09.606Z,86.60
2019-02-12T15:18:38.951Z,88.30
2019-02-12T15:21:08.288Z,88.10
2019-02-12T15:23:37.630Z,88.30
2019-02-12T15:26:06.965Z,88.60
2019-02-12T15:28:36.309Z,89.30
2019-02-12T15:31:05.646Z,89.40
2019-02-12T15:33:34.984Z,89.80
2019-02-12T15:36:04.316Z,90.10
2019-02-12T15:38:33.658Z,90.10
2019-02-12T15:41:02.999Z,90.10
2019-02-12T15:43:32.334Z,90.30
2019-02-12T15:46:01.669Z,90.40
2019-02-12T15:48:31.034Z,90.60
2019-02-12T15:51:00.378Z,90.70
2019-02-12T15:53:29.710Z,90.90
2019-02-12T15:55:59.047Z,91.00
2019-02-12T15:58:30.206Z,91.10
2019-02-12T16:00:59.466Z,91.10
2019-02-12T16:03:28.801Z,91.20
2019-02-12T16:05:58.809Z,91.20
2019-02-12T16:08:30.028Z,91.10
2019-02-12T16:10:59.154Z,91.30
2019-02-12T16:13:28.487Z,91.50
2019-02-12T16:15:57.820Z,91.50
2019-02-12T16:18:27.165Z,91.70
2019-02-12T16:20:56.506Z,91.80
2019-02-12T16:23:25.846Z,91.90
2019-02-12T16:25:59.553Z,92.00
2019-02-12T16:28:26.249Z,92.00
2019-02-12T16:30:55.621Z,92.20
2019-02-12T16:33:24.957Z,92.30
2019-02-12T16:35:54.292Z,92.40
2019-02-12T16:38:23.632Z,92.50
2019-02-12T16:40:52.975Z,92.70
2019-02-12T16:43:22.311Z,92.80
2019-02-12T16:46:02.228Z,93.00
2019-02-12T16:48:31.566Z,93.20
2019-02-12T16:51:00.904Z,93.20
2019-02-12T16:53:30.236Z,93.40
2019-02-12T16:56:08.156Z,93.50
2019-02-12T16:58:32.089Z,93.50
2019-02-12T17:01:01.419Z,93.70
2019-02-12T17:03:30.759Z,94.00
2019-02-12T17:06:00.098Z,93.80
2019-02-12T17:08:29.463Z,93.70
2019-02-12T17:10:58.813Z,93.80
2019-02-12T17:13:28.214Z,93.90
2019-02-12T17:15:57.551Z,93.90
2019-02-12T17:18:26.896Z,94.00
2019-02-12T17:20:56.224Z,94.10
2019-02-12T17:23:25.573Z,94.20
2019-02-12T17:25:54.905Z,94.30
2019-02-12T17:28:24.250Z,94.40
2019-02-12T17:30:53.585Z,94.40
2019-02-12T17:33:22.916Z,94.50
2019-02-12T17:35:52.255Z,94.60
2019-02-12T17:38:21.591Z,94.60
2019-02-12T17:40:50.929Z,94.70
2019-02-12T17:43:20.263Z,94.90
2019-02-12T17:45:49.601Z,95.00
2019-02-12T17:48:18.945Z,95.10
2019-02-12T17:50:48.279Z,95.10
2019-02-12T17:53:17.619Z,95.10
2019-02-12T17:55:46.954Z,95.20
2019-02-12T17:58:16.293Z,95.10
2019-02-12T18:00:46.107Z,95.00
2019-02-12T18:03:15.446Z,95.00
2019-02-12T18:05:44.785Z,95.00
2019-02-12T18:08:14.133Z,95.00
2019-02-12T18:10:43.467Z,95.00
2019-02-12T18:13:12.805Z,95.00
2019-02-12T18:15:42.143Z,95.00
2019-02-12T18:18:11.480Z,95.00
2019-02-12T18:20:40.820Z,95.00
2019-02-12T18:23:10.417Z,95.00
2019-02-12T18:25:42.410Z,95.00
2019-02-12T18:28:11.736Z,94.90
2019-02-12T18:30:41.074Z,94.80
2019-02-12T18:33:10.405Z,94.70
2019-02-12T18:35:39.743Z,94.70
2019-02-12T18:38:09.081Z,94.70
2019-02-12T18:40:38.423Z,94.70
2019-02-12T18:43:07.762Z,94.60
2019-02-12T18:45:37.168Z,94.70
2019-02-12T18:48:06.570Z,94.60
2019-02-12T18:50:35.908Z,94.70
2019-02-12T18:53:05.247Z,94.60
2019-02-12T18:55:34.582Z,94.60
2019-02-12T18:58:03.921Z,94.60
2019-02-12T19:00:33.249Z,94.60
2019-02-12T19:03:02.587Z,94.60
2019-02-12T19:05:31.928Z,94.60
2019-02-12T19:08:01.272Z,94.60
2019-02-12T19:10:30.603Z,94.70
2019-02-12T19:12:59.936Z,94.60
2019-02-12T19:15:29.514Z,94.80
2019-02-12T19:18:15.472Z,94.80
2019-02-12T19:20:44.810Z,94.90
2019-02-12T19:23:14.144Z,94.90
2019-02-12T19:25:43.478Z,94.90
2019-02-12T19:28:12.819Z,94.90
2019-02-12T19:30:42.206Z,95.00
2019-02-12T19:33:11.544Z,95.00
2019-02-12T19:35:40.902Z,95.10
2019-02-12T19:38:10.252Z,95.10
2019-02-12T19:40:39.581Z,95.10
2019-02-12T19:43:08.912Z,95.20
2019-02-12T19:45:38.259Z,95.60
2019-02-12T19:48:07.593Z,95.20
2019-02-12T19:50:36.933Z,95.30
2019-02-12T19:53:06.277Z,95.30
2019-02-12T19:55:35.622Z,95.20
2019-02-12T19:58:04.969Z,95.40
2019-02-12T20:00:34.292Z,95.40
2019-02-12T20:03:03.867Z,95.40
2019-02-12T20:05:33.202Z,95.50
2019-02-12T20:08:02.543Z,95.70
2019-02-12T20:10:31.877Z,95.80
2019-02-12T20:13:01.204Z,95.80
2019-02-12T20:15:32.476Z,95.80
2019-02-12T20:18:01.818Z,95.90
2019-02-12T20:20:31.226Z,95.90
2019-02-12T20:23:00.557Z,96.00
2019-02-12T20:25:30.099Z,96.10
2019-02-12T20:27:59.437Z,96.20
2019-02-12T20:30:28.778Z,96.20
2019-02-12T20:32:58.106Z,96.30
2019-02-12T20:35:27.447Z,96.30
2019-02-12T20:37:56.781Z,96.50
2019-02-12T20:40:26.117Z,96.60
2019-02-12T20:42:55.463Z,96.60
2019-02-12T20:45:24.889Z,96.70
2019-02-12T20:47:54.241Z,96.70
2019-02-12T20:50:23.574Z,97.00
2019-02-12T20:52:52.920Z,97.10
2019-02-12T20:55:22.261Z,97.20
2019-02-12T20:57:51.597Z,97.50
2019-02-12T21:00:24.995Z,97.50
2019-02-12T21:02:54.337Z,97.60
2019-02-12T21:05:23.682Z,97.70
2019-02-12T21:07:53.015Z,97.90
2019-02-12T21:10:24.535Z,98.00
2019-02-12T21:12:53.876Z,98.00
2019-02-12T21:15:31.004Z,98.20
2019-02-12T21:18:00.347Z,98.30
2019-02-12T21:20:29.682Z,98.30
2019-02-12T21:22:59.627Z,98.50
2019-02-12T21:25:28.966Z,98.50
2019-02-12T21:27:58.307Z,98.60
2019-02-12T21:30:31.551Z,98.70
2019-02-12T21:33:00.894Z,98.70
2019-02-12T21:35:30.232Z,98.70
2019-02-12T21:38:00.442Z,98.80
2019-02-12T21:40:29.783Z,98.90
2019-02-12T21:42:59.134Z,98.90
2019-02-12T21:45:28.477Z,98.90
2019-02-12T21:47:57.817Z,98.90
2019-02-12T21:50:27.154Z,99.10
2019-02-12T21:52:56.494Z,99.00
2019-02-12T21:55:25.831Z,98.90
2019-02-12T21:57:55.174Z,98.90
2019-02-12T22:00:24.510Z,98.80
2019-02-12T22:02:53.863Z,98.80
2019-02-12T22:05:23.203Z,98.60
2019-02-12T22:07:52.543Z,98.60
2019-02-12T22:10:31.674Z,98.80
2019-02-12T22:13:01.012Z,98.30
2019-02-12T22:15:30.351Z,98.20
2019-02-12T22:17:59.701Z,98.10
2019-02-12T22:20:29.045Z,98.00
2019-02-12T22:22:58.388Z,97.90
2019-02-12T22:25:27.726Z,97.80
2019-02-12T22:27:57.061Z,97.70
2019-02-12T22:30:27.045Z,97.70
2019-02-12T22:32:56.383Z,97.70
2019-02-12T22:35:25.727Z,97.40
2019-02-12T22:37:55.091Z,97.40
2019-02-12T22:40:24.426Z,97.30
2019-02-12T22:42:53.767Z,97.30
2019-02-12T22:45:25.787Z,97.10
2019-02-12T22:47:55.130Z,97.10
2019-02-12T22:50:24.478Z,96.90
2019-02-12T22:52:53.814Z,96.90
2019-02-12T22:55:23.153Z,96.70
2019-02-12T22:57:52.504Z,96.50
2019-02-12T23:00:33.984Z,96.50
2019-02-12T23:03:03.331Z,96.40
2019-02-12T23:05:32.671Z,96.30
2019-02-12T23:08:02.006Z,96.20
2019-02-12T23:10:31.348Z,96.00
2019-02-12T23:13:00.680Z,96.00
2019-02-12T23:15:30.017Z,95.90
2019-02-12T23:17:59.354Z,95.80
2019-02-12T23:20:28.691Z,95.40
2019-02-12T23:22:58.029Z,95.50
2019-02-12T23:25:27.366Z,95.40
2019-02-12T23:27:57.748Z,95.40
2019-02-12T23:30:27.274Z,95.20
2019-02-12T23:32:57.087Z,95.10
2019-02-12T23:35:26.424Z,95.10
2019-02-12T23:37:55.843Z,95.20
2019-02-12T23:40:25.178Z,94.80
2019-02-12T23:42:54.515Z,94.80
2019-02-12T23:45:23.853Z,94.80
2019-02-12T23:47:53.189Z,94.80
2019-02-12T23:50:22.527Z,94.50
2019-02-12T23:52:51.870Z,94.60
2019-02-12T23:55:21.206Z,94.60
2019-02-12T23:57:50.542Z,94.60
